Time;durP1;ratioP1;P1;durP2;ratioP2;P2;SDS_P1;SDS_P2;PMS_P1;PMS_P2;Temp;Humidity;BMP_temperature;BMP_pressure;BME280_temperature;BME280_humidity;BME280_pressure;Samples;Min_cycle;Max_cycle;Signal;HPM_P1;HPM_P2
2022/04/21 00:02:15;;;;;;;6.07;3.47;;;;;;;9.50;61.44;99471.78;5092030;28;20063;-61
2022/04/21 00:04:41;;;;;;;6.70;3.75;;;;;;;9.51;61.99;99477.03;5091446;28;20016;-61
2022/04/21 00:07:06;;;;;;;5.47;3.38;;;;;;;9.51;62.41;99471.72;5091870;28;20111;-61
2022/04/21 00:09:31;;;;;;;6.63;3.28;;;;;;;9.48;62.18;99474.47;5091320;28;20043;-61
2022/04/21 00:11:57;;;;;;;6.10;3.60;;;;;;;9.49;62.86;99473.56;5090428;28;20452;-61
2022/04/21 00:14:22;;;;;;;9.02;4.03;;;;;;;9.48;63.14;99473.59;5090435;28;20035;-61
2022/04/21 00:16:48;;;;;;;4.95;3.20;;;;;;;9.47;63.04;99472.75;5090027;28;20097;-61
2022/04/21 00:19:13;;;;;;;7.35;3.47;;;;;;;9.52;64.10;99465.50;5092645;28;20122;-61
2022/04/21 00:24:22;;;;;;;;;;;;;;;9.53;63.07;99467.22;5094013;28;20497;-61
2022/04/21 00:26:48;;;;;;;7.10;3.60;;;;;;;9.49;63.15;99457.63;5095570;28;19912;-61
2022/04/21 00:29:13;;;;;;;7.68;3.80;;;;;;;9.43;64.10;99460.50;5094063;28;20043;-61
2022/04/21 00:31:39;;;;;;;7.88;4.00;;;;;;;9.38;62.88;99449.19;5094157;28;20111;-61
2022/04/21 00:34:04;;;;;;;8.95;4.20;;;;;;;9.39;63.58;99453.56;5094074;28;20077;-61
2022/04/21 00:36:30;;;;;;;6.53;3.70;;;;;;;9.22;63.87;99442.72;5094063;28;20024;-61
2022/04/21 00:38:55;;;;;;;7.53;4.25;;;;;;;9.20;65.26;99452.53;5094063;28;20024;-61
2022/04/21 00:41:21;;;;;;;6.38;3.28;;;;;;;9.12;67.46;99463.41;5094176;28;20032;-61
2022/04/21 00:43:46;;;;;;;5.97;3.15;;;;;;;9.07;67.47;99457.41;5094832;28;20032;-61
2022/04/21 00:46:17;;;;;;;7.45;3.88;;;;;;;9.08;67.54;99464.44;5077512;28;20052;-61
2022/04/21 00:48:43;;;;;;;7.03;3.80;;;;;;;9.11;67.95;99452.84;5075054;28;20111;-61
2022/04/21 00:51:09;;;;;;;6.88;3.97;;;;;;;9.09;68.10;99460.00;5075007;28;20025;-61
2022/04/21 00:53:34;;;;;;;6.47;3.78;;;;;;;9.08;68.06;99459.13;5074925;28;20074;-61
2022/04/21 00:56:01;;;;;;;7.65;3.63;;;;;;;9.00;68.34;99452.34;5084833;28;20531;-61
2022/04/21 00:58:29;;;;;;;8.43;3.85;;;;;;;8.96;68.55;99448.94;5095434;28;20028;-61
2022/04/21 01:00:55;;;;;;;5.63;3.95;;;;;;;9.02;68.55;99450.53;5091601;28;20028;-61
2022/04/21 01:03:21;;;;;;;7.03;3.72;;;;;;;9.08;68.00;99459.13;5074867;28;20185;-61
2022/04/21 01:05:47;;;;;;;7.13;3.80;;;;;;;9.06;67.68;99453.00;5074601;28;20099;-61
2022/04/21 01:08:13;;;;;;;10.45;3.88;;;;;;;9.14;67.99;99448.28;5090072;28;20069;-61
2022/04/21 01:10:41;;;;;;;8.27;4.65;;;;;;;9.12;67.84;99444.84;5094825;28;20102;-61
2022/04/21 01:13:08;;;;;;;9.57;4.03;;;;;;;9.19;67.21;99446.34;5094985;28;20050;-61
2022/04/21 01:15:35;;;;;;;7.70;3.90;;;;;;;9.26;66.68;99439.91;5094280;28;20440;-61
2022/04/21 01:18:00;;;;;;;7.95;4.35;;;;;;;9.36;66.43;99437.75;5094837;28;20102;-62
2022/04/21 01:20:26;;;;;;;8.55;4.05;;;;;;;9.35;66.52;99444.00;5093463;28;20185;-61
2022/04/21 01:22:53;;;;;;;8.20;3.67;;;;;;;9.40;66.36;99438.53;5094291;28;20495;-61
2022/04/21 01:25:20;;;;;;;7.72;3.85;;;;;;;9.42;66.27;99440.22;5094559;28;20020;-61
2022/04/21 01:27:49;;;;;;;7.03;3.63;;;;;;;9.35;66.16;99428.09;5091933;28;20077;-61
2022/04/21 01:30:14;;;;;;;7.63;3.53;;;;;;;9.40;67.01;99436.75;5076006;28;20028;-61
2022/04/21 01:32:42;;;;;;;6.20;3.70;;;;;;;9.35;67.17;99433.41;5073279;28;20025;-61
2022/04/21 01:35:09;;;;;;;6.00;3.90;;;;;;;9.32;67.69;99430.84;5072761;28;20442;-61
2022/04/21 01:43:04;;;;;;;6.90;3.63;;;;;;;9.39;68.48;99427.03;5074523;28;20040;-61
2022/04/21 01:45:30;;;;;;;7.90;3.83;;;;;;;9.41;68.88;99427.84;5073923;28;20016;-61
2022/04/21 01:47:56;;;;;;;7.03;4.25;;;;;;;9.42;69.13;99432.25;5083020;28;20019;-61
2022/04/21 01:50:23;;;;;;;6.55;4.75;;;;;;;9.42;69.28;99429.59;5093827;28;20483;-61
2022/04/21 01:52:48;;;;;;;6.60;4.20;;;;;;;9.33;69.58;99433.44;5094144;28;20020;-61
2022/04/21 01:55:14;;;;;;;6.18;4.00;;;;;;;9.22;70.07;99421.50;5093808;28;20074;-61
2022/04/21 01:57:39;;;;;;;12.65;4.55;;;;;;;9.28;70.82;99419.50;5094227;28;20518;-61
2022/04/21 02:00:07;;;;;;;7.45;4.38;;;;;;;9.35;70.90;99428.09;5093666;28;20471;-61
2022/04/21 02:02:33;;;;;;;7.22;4.30;;;;;;;9.31;71.54;99419.38;5094034;28;20027;-61
2022/04/21 02:05:00;;;;;;;5.80;4.10;;;;;;;9.27;71.81;99416.88;5093822;28;20020;-61
2022/04/21 02:07:26;;;;;;;6.72;4.30;;;;;;;9.25;71.43;99413.41;5093812;28;20020;-61
2022/04/21 02:09:52;;;;;;;6.90;4.13;;;;;;;9.29;71.60;99407.09;5093487;28;20226;-61
2022/04/21 02:12:18;;;;;;;7.95;4.93;;;;;;;9.29;71.53;99409.75;5093899;28;20028;-61
2022/04/21 02:14:43;;;;;;;6.90;4.65;;;;;;;9.28;71.14;99413.31;5093549;28;20101;-61
2022/04/21 02:17:09;;;;;;;11.98;4.38;;;;;;;9.32;72.03;99409.63;5093662;28;20020;-61
2022/04/21 02:19:34;;;;;;;6.18;4.47;;;;;;;9.32;71.67;99417.59;5092922;28;20035;-61
2022/04/21 02:22:00;;;;;;;6.65;4.50;;;;;;;9.40;71.80;99407.56;5093367;28;20571;-61
2022/04/21 02:24:25;;;;;;;7.47;4.30;;;;;;;9.38;71.44;99412.03;5093291;28;20085;-61
2022/04/21 02:26:51;;;;;;;5.55;4.07;;;;;;;9.41;72.04;99414.56;5093683;28;20368;-61
2022/04/21 02:29:16;;;;;;;6.75;4.70;;;;;;;9.38;72.51;99414.69;5093299;28;20429;-61
2022/04/21 02:31:41;;;;;;;9.77;4.68;;;;;;;9.40;72.79;99417.28;5093370;28;20514;-61
2022/04/21 02:34:07;;;;;;;6.78;4.50;;;;;;;9.39;72.71;99411.09;5093404;28;20161;-61
2022/04/21 02:36:32;;;;;;;7.40;4.45;;;;;;;9.39;72.96;99413.75;5093406;28;20027;-61
2022/04/21 02:38:58;;;;;;;7.60;4.97;;;;;;;9.33;73.98;99419.31;5092960;28;20028;-61
2022/04/21 02:41:23;;;;;;;10.90;4.25;;;;;;;9.31;73.68;99418.50;5092163;28;20453;-61
2022/04/21 02:43:48;;;;;;;9.20;4.75;;;;;;;9.34;73.39;99413.06;5093184;28;20070;-61
2022/04/21 02:46:14;;;;;;;6.95;4.50;;;;;;;9.39;73.83;99415.56;5091192;28;20056;-61
2022/04/21 02:48:40;;;;;;;7.05;4.60;;;;;;;9.37;74.18;99407.66;5074665;28;20032;-61
2022/04/21 02:51:06;;;;;;;6.93;4.22;;;;;;;9.41;74.05;99413.72;5072492;28;20099;-61
2022/04/21 02:59:00;;;;;;;;;;;;;;;9.41;74.48;99413.72;5093232;28;20492;-61
2022/04/21 03:01:29;;;;;;;8.40;5.18;;;;;;;9.41;74.15;99411.91;5075514;28;19997;-61
2022/04/21 03:03:54;;;;;;;6.97;4.65;;;;;;;9.41;74.40;99401.31;5072244;28;20522;-61
2022/04/21 03:06:20;;;;;;;8.35;4.55;;;;;;;9.39;74.80;99405.78;5072387;28;20016;-61
2022/04/21 03:08:46;;;;;;;9.95;4.82;;;;;;;9.37;74.64;99412.97;5077256;28;20538;-61
2022/04/21 03:11:11;;;;;;;7.00;4.55;;;;;;;9.29;74.74;99399.13;5092405;28;20027;-61
2022/04/21 03:13:37;;;;;;;7.88;4.47;;;;;;;9.28;75.12;99395.59;5092787;28;20059;-61
2022/04/21 03:16:02;;;;;;;6.10;4.43;;;;;;;9.26;75.48;99396.56;5092273;28;20546;-61
2022/04/21 03:18:27;;;;;;;8.45;4.85;;;;;;;9.28;75.21;99397.38;5092256;28;20031;-61
2022/04/21 03:26:21;;;;;;;7.55;4.28;;;;;;;9.31;75.31;99392.81;5084301;28;19915;-61
2022/04/21 03:28:46;;;;;;;7.68;4.78;;;;;;;9.29;75.25;99389.34;5091952;28;20036;-61
2022/04/21 03:31:11;;;;;;;9.13;5.40;;;;;;;9.23;75.62;99396.69;5090521;28;20035;-61
2022/04/21 03:33:37;;;;;;;7.70;5.35;;;;;;;9.19;76.04;99400.41;5073868;28;20165;-61
2022/04/21 03:36:03;;;;;;;6.68;4.10;;;;;;;9.19;76.02;99395.09;5070679;28;20032;-61
2022/04/21 03:38:28;;;;;;;8.90;4.78;;;;;;;9.15;76.21;99389.03;5071488;28;20527;-61
2022/04/21 03:40:56;;;;;;;6.88;4.90;;;;;;;9.14;76.11;99394.38;5082252;28;20028;-61
2022/04/21 03:43:21;;;;;;;9.00;5.93;;;;;;;9.09;76.94;99396.34;5092026;28;20429;-61
2022/04/21 03:45:46;;;;;;;6.78;4.72;;;;;;;9.12;76.69;99396.22;5091739;28;20157;-61
2022/04/21 03:48:13;;;;;;;8.20;5.32;;;;;;;9.14;77.11;99392.56;5092084;28;20020;-61
2022/04/21 03:50:39;;;;;;;8.65;5.07;;;;;;;9.08;77.00;99383.97;5091774;28;20069;-61
2022/04/21 03:53:05;;;;;;;8.18;5.05;;;;;;;9.10;77.15;99398.06;5091873;28;20026;-61
2022/04/21 03:55:31;;;;;;;6.57;4.82;;;;;;;9.11;77.34;99397.13;5091534;28;20024;-61
2022/04/21 03:57:57;;;;;;;9.05;5.13;;;;;;;9.12;77.32;99390.91;5091683;28;20454;-61
2022/04/21 04:00:23;;;;;;;11.40;5.05;;;;;;;9.16;76.75;99397.81;5091726;28;20467;-61
2022/04/21 04:02:48;;;;;;;14.88;5.35;;;;;;;9.07;77.43;99385.78;5091937;28;20403;-61
2022/04/21 04:05:13;;;;;;;11.07;6.28;;;;;;;9.07;76.90;99392.88;5091681;28;20386;-61
2022/04/21 04:13:07;;;;;;;;;;;;;;;9.14;77.17;99391.72;5092286;28;20092;-61
2022/04/21 04:15:32;;;;;;;7.35;4.95;;;;;;;9.14;77.11;99389.09;5091369;28;20396;-60
2022/04/21 04:17:58;;;;;;;9.48;6.03;;;;;;;9.13;76.99;99387.34;5091706;28;20032;-60
2022/04/21 04:20:27;;;;;;;9.00;5.20;;;;;;;9.16;77.05;99393.41;5091703;28;20024;-61
2022/04/21 04:22:52;;;;;;;7.88;5.45;;;;;;;9.16;76.84;99390.75;5071550;28;20523;-61
2022/04/21 04:25:17;;;;;;;9.45;6.05;;;;;;;9.16;76.95;99390.75;5070745;28;20025;-61
2022/04/21 04:27:43;;;;;;;9.57;5.80;;;;;;;9.18;77.10;99396.00;5071316;28;20029;-61
2022/04/21 04:30:09;;;;;;;7.72;5.20;;;;;;;9.11;76.67;99386.50;5071320;28;20051;-61
2022/04/21 04:32:35;;;;;;;10.73;5.75;;;;;;;9.13;77.23;99393.50;5071254;28;20032;-61
2022/04/21 04:35:01;;;;;;;8.82;5.93;;;;;;;9.12;77.46;99390.91;5071058;28;20454;-61
2022/04/21 04:37:26;;;;;;;7.20;5.18;;;;;;;9.04;78.33;99388.53;5071268;28;20104;-61
2022/04/21 04:39:53;;;;;;;8.63;6.03;;;;;;;9.07;78.23;99390.22;5071132;28;20040;-61
2022/04/21 04:42:20;;;;;;;8.55;5.80;;;;;;;9.08;78.06;99391.94;5070966;28;20035;-61
2022/04/21 04:44:47;;;;;;;8.38;5.57;;;;;;;9.12;77.94;99396.22;5071266;28;20315;-61
2022/04/21 04:47:13;;;;;;;8.88;6.10;;;;;;;9.13;78.24;99408.56;5071083;28;20409;-61
2022/04/21 04:49:39;;;;;;;11.70;7.53;;;;;;;9.15;77.91;99396.09;5071133;28;20086;-61
2022/04/21 04:52:05;;;;;;;10.32;6.80;;;;;;;9.16;78.08;99400.47;5058580;28;20083;-61
2022/04/21 04:54:31;;;;;;;15.13;7.93;;;;;;;9.14;78.24;99394.38;5053524;28;20039;-61
2022/04/21 04:56:57;;;;;;;12.10;7.28;;;;;;;9.23;78.11;99399.34;5065922;28;20492;-61
2022/04/21 04:59:23;;;;;;;14.80;9.18;;;;;;;9.29;77.90;99405.28;5069289;28;20020;-61
2022/04/21 05:01:48;;;;;;;12.35;7.80;;;;;;;9.37;77.99;99407.66;5051605;28;20025;-60
2022/04/21 05:04:16;;;;;;;10.70;6.78;;;;;;;9.37;77.60;99410.31;5052029;28;20040;-61
2022/04/21 05:06:42;;;;;;;10.75;5.18;;;;;;;9.39;77.83;99404.97;5054599;28;20013;-61
2022/04/21 05:09:10;;;;;;;9.77;7.20;;;;;;;9.40;77.85;99407.56;5054988;28;20074;-61
2022/04/21 05:11:37;;;;;;;8.77;5.57;;;;;;;9.43;78.23;99407.44;5054451;28;20029;-61
2022/04/21 05:14:09;;;;;;;10.32;6.18;;;;;;;9.56;78.00;99406.03;5072176;28;20032;-61
2022/04/21 05:16:39;;;;;;;8.73;5.97;;;;;;;9.58;77.76;99401.53;5074439;28;20149;-61
2022/04/21 05:19:08;;;;;;;11.43;6.82;;;;;;;9.84;77.47;99393.41;5074300;28;20111;-61
2022/04/21 05:21:35;;;;;;;9.60;6.50;;;;;;;10.07;75.99;99390.72;5083870;28;20119;-61
2022/04/21 05:24:01;;;;;;;9.15;6.15;;;;;;;10.11;75.86;99392.38;5094451;28;20047;-61
2022/04/21 05:26:31;;;;;;;9.48;5.82;;;;;;;10.10;73.81;99395.06;5083591;28;20412;-61
2022/04/21 05:28:59;;;;;;;10.65;5.85;;;;;;;10.11;73.83;99397.69;5074316;28;20032;-61
2022/04/21 05:31:26;;;;;;;9.07;5.72;;;;;;;10.15;73.83;99393.94;5067048;28;20032;-61
2022/04/21 05:33:53;;;;;;;10.65;6.63;;;;;;;10.12;73.71;99394.09;5054257;28;20387;-61
2022/04/21 05:36:19;;;;;;;9.32;6.35;;;;;;;10.17;73.16;99394.75;5037073;28;20037;-61
2022/04/21 05:38:46;;;;;;;12.02;5.45;;;;;;;10.20;73.28;99386.66;5072914;28;20050;-61
2022/04/21 05:41:13;;;;;;;11.35;6.10;;;;;;;10.37;73.86;99388.63;5069327;28;20040;-61
2022/04/21 05:43:44;;;;;;;8.15;6.05;;;;;;;10.53;72.96;99387.91;5053969;28;20028;-61
2022/04/21 05:46:15;;;;;;;8.25;5.53;;;;;;;10.76;72.68;99388.75;5053986;28;20032;-61
2022/04/21 05:48:41;;;;;;;15.63;6.18;;;;;;;10.72;71.37;99385.34;5053970;28;20056;-61
2022/04/21 05:51:09;;;;;;;8.95;5.75;;;;;;;10.83;71.69;99377.75;5053921;28;20380;-60
2022/04/21 05:53:46;;;;;;;10.00;6.75;;;;;;;11.15;71.18;99379.00;5070590;28;20032;-61
2022/04/21 05:56:11;;;;;;;10.68;6.47;;;;;;;11.87;67.78;99375.59;5073963;28;20095;-61
2022/04/21 05:58:37;;;;;;;9.27;6.45;;;;;;;12.49;64.50;99376.03;5073670;28;20112;-61
2022/04/21 06:01:06;;;;;;;8.55;5.43;;;;;;;12.47;62.95;99372.56;5073570;28;20111;-61
2022/04/21 06:03:32;;;;;;;8.90;5.68;;;;;;;12.39;63.17;99373.94;5074022;28;20074;-61
2022/04/21 06:05:57;;;;;;;9.55;5.97;;;;;;;12.36;63.41;99369.59;5073596;28;20728;-61
2022/04/21 06:08:22;;;;;;;11.52;5.88;;;;;;;12.39;62.75;99374.75;5073500;28;20078;-61
2022/04/21 06:10:48;;;;;;;10.15;5.95;;;;;;;12.39;62.32;99374.75;5073528;28;20029;-61
2022/04/21 06:13:15;;;;;;;10.20;5.63;;;;;;;12.86;62.55;99367.88;5073556;28;20035;-61
2022/04/21 06:15:41;;;;;;;11.32;5.68;;;;;;;13.43;61.33;99368.41;5073165;28;20035;-61
2022/04/21 06:18:07;;;;;;;9.20;6.47;;;;;;;13.71;60.29;99368.63;5089964;28;20464;-61
2022/04/21 06:20:34;;;;;;;12.00;6.80;;;;;;;13.61;58.18;99354.03;5093515;28;20042;-61
2022/04/21 06:22:59;;;;;;;9.75;6.38;;;;;;;13.72;58.90;99367.69;5093551;28;20028;-61
2022/04/21 06:25:24;;;;;;;9.77;6.05;;;;;;;13.58;58.28;99364.91;5091262;28;20023;-61
2022/04/21 06:27:51;;;;;;;9.65;5.93;;;;;;;13.64;58.52;99370.78;5072992;28;20021;-61
2022/04/21 06:30:17;;;;;;;11.07;6.32;;;;;;;13.74;58.96;99371.16;5073005;28;20063;-61
2022/04/21 06:32:43;;;;;;;11.07;6.35;;;;;;;13.74;57.86;99372.00;5073108;28;20048;-61
2022/04/21 06:35:08;;;;;;;10.88;6.47;;;;;;;13.69;57.48;99365.19;5072701;28;20021;-61
2022/04/21 06:37:35;;;;;;;9.13;5.72;;;;;;;13.62;58.70;99377.16;5072935;28;20450;-61
2022/04/21 06:40:01;;;;;;;8.00;5.28;;;;;;;13.95;57.34;99375.28;5072905;28;20032;-61
2022/04/21 06:42:27;;;;;;;10.90;6.70;;;;;;;14.33;57.79;99365.97;5072722;28;20085;-61
2022/04/21 06:50:20;;;;;;;12.23;6.72;;;;;;;15.25;53.46;99380.00;5052849;28;20138;-61
2022/04/21 06:52:45;;;;;;;10.25;6.60;;;;;;;15.75;52.06;99375.03;5053039;28;20112;-61
2022/04/21 06:55:11;;;;;;;10.30;6.82;;;;;;;15.98;52.38;99375.38;5055384;28;20469;-61
2022/04/21 06:57:36;;;;;;;9.90;6.53;;;;;;;16.31;51.61;99368.66;5072584;28;20081;-61
2022/04/21 07:00:03;;;;;;;9.93;6.10;;;;;;;16.22;49.09;99374.63;5072531;28;20025;-61
2022/04/21 07:02:31;;;;;;;11.23;7.00;;;;;;;16.48;49.96;99372.94;5070662;28;20024;-61
2022/04/21 07:05:07;;;;;;;11.18;6.40;;;;;;;16.64;49.21;99371.81;5070095;28;20028;-61
2022/04/21 07:07:32;;;;;;;10.35;6.28;;;;;;;16.98;50.11;99365.84;5072446;28;20047;-61
2022/04/21 07:10:00;;;;;;;9.82;6.30;;;;;;;17.33;48.47;99366.09;5072401;28;20024;-61
2022/04/21 07:12:32;;;;;;;9.38;5.60;;;;;;;17.25;46.39;99373.00;5072416;28;20487;-61
2022/04/21 07:15:05;;;;;;;9.95;6.25;;;;;;;16.93;47.61;99370.69;5071999;28;20086;-61
2022/04/21 07:17:31;;;;;;;18.38;11.63;;;;;;;17.06;48.48;99366.22;5083608;28;20054;-60
2022/04/21 07:19:58;;;;;;;11.05;6.82;;;;;;;17.42;47.38;99369.97;5092664;28;20095;-60
2022/04/21 07:22:25;;;;;;;9.68;6.85;;;;;;;17.38;47.16;99358.56;5092080;28;20056;-60
2022/04/21 07:24:54;;;;;;;9.98;5.90;;;;;;;17.12;45.92;99367.59;5090856;28;20020;-60
2022/04/21 07:27:20;;;;;;;9.43;5.88;;;;;;;17.06;47.87;99362.66;5072241;28;20032;-60
2022/04/21 07:29:45;;;;;;;8.50;6.55;;;;;;;17.03;47.68;99347.59;5066207;28;20024;-60
2022/04/21 07:32:11;;;;;;;11.40;7.00;;;;;;;17.45;46.43;99357.19;5052243;28;20024;-60
2022/04/21 07:34:37;;;;;;;10.52;6.68;;;;;;;17.44;47.15;99371.59;5052113;28;20096;-60
2022/04/21 07:37:04;;;;;;;10.02;6.25;;;;;;;17.63;46.28;99363.97;5052115;28;20484;-60
2022/04/21 07:39:29;;;;;;;8.45;6.10;;;;;;;17.75;45.94;99368.47;5051900;28;20085;-60
2022/04/21 07:41:57;;;;;;;8.23;5.95;;;;;;;18.08;46.04;99360.63;5055296;28;20021;-60
2022/04/21 07:44:22;;;;;;;9.82;5.57;;;;;;;18.07;44.47;99366.13;5071064;28;20035;-60
2022/04/21 07:46:48;;;;;;;9.70;5.78;;;;;;;18.04;45.38;99364.50;5071734;28;20012;-60
2022/04/21 07:54:42;;;;;;;9.90;7.05;;;;;;;18.53;45.77;99360.91;5067599;28;20046;-60
2022/04/21 07:57:08;;;;;;;11.00;6.38;;;;;;;18.97;44.83;99361.06;5057990;28;20063;-60
2022/04/21 07:59:34;;;;;;;7.80;5.80;;;;;;;19.17;44.25;99353.16;5050746;28;20100;-60
2022/04/21 08:02:00;;;;;;;11.63;6.30;;;;;;;19.71;43.46;99360.59;5050482;28;20033;-60
2022/04/21 08:04:26;;;;;;;8.75;6.05;;;;;;;20.37;42.54;99350.59;5051258;28;20035;-60
2022/04/21 08:06:51;;;;;;;8.52;6.20;;;;;;;20.78;40.83;99349.81;5050929;28;20075;-60
2022/04/21 08:09:16;;;;;;;10.68;6.38;;;;;;;21.19;40.21;99349.00;5050426;28;20025;-60
2022/04/21 08:11:42;;;;;;;10.35;6.55;;;;;;;21.79;39.56;99354.50;5051565;28;20535;-60
2022/04/21 08:14:07;;;;;;;7.75;5.45;;;;;;;22.46;38.95;99351.97;5050879;28;20032;-60
2022/04/21 08:16:33;;;;;;;7.53;5.30;;;;;;;22.55;37.00;99354.75;5058659;28;20020;-60
2022/04/21 08:19:00;;;;;;;9.38;5.65;;;;;;;22.86;37.85;99353.59;5091454;28;20391;-60
2022/04/21 08:21:26;;;;;;;9.90;6.07;;;;;;;22.94;36.01;99358.31;5091538;28;20044;-60
2022/04/21 08:23:51;;;;;;;7.70;5.38;;;;;;;23.00;35.89;99347.75;5089521;28;20028;-60
2022/04/21 08:34:30;;;;;;;9.77;5.47;;;;;;;23.09;36.29;99352.31;5070916;28;20039;-61
2022/04/21 08:36:55;;;;;;;8.77;5.60;;;;;;;22.77;36.35;99340.91;5071607;28;20033;-60
2022/04/21 08:39:21;;;;;;;10.23;5.63;;;;;;;22.82;36.92;99345.88;5072349;28;20028;-60
2022/04/21 08:41:51;;;;;;;8.15;5.97;;;;;;;22.54;35.19;99344.88;5075161;28;20028;-60
2022/04/21 08:44:20;;;;;;;11.00;5.90;;;;;;;22.57;35.76;99350.00;5068346;28;20017;-60
2022/04/21 08:46:47;;;;;;;9.98;5.65;;;;;;;22.41;36.37;99346.09;5052482;28;20025;-60
2022/04/21 08:49:17;;;;;;;8.45;6.30;;;;;;;22.28;37.57;99343.66;5052529;28;20032;-62
2022/04/21 08:51:42;;;;;;;9.57;5.88;;;;;;;22.40;36.68;99342.56;5053178;28;20032;-61
2022/04/21 08:54:08;;;;;;;10.93;6.18;;;;;;;22.58;36.22;99346.31;5054237;28;20025;-60
2022/04/21 08:56:33;;;;;;;9.60;6.65;;;;;;;23.05;38.28;99360.84;5069094;28;20107;-61
2022/04/21 08:58:59;;;;;;;11.18;6.28;;;;;;;22.85;36.85;99354.59;5072413;28;20039;-60
2022/04/21 09:01:25;;;;;;;9.02;5.75;;;;;;;22.43;37.07;99353.13;5054552;28;20048;-61
2022/04/21 09:03:50;;;;;;;8.93;6.57;;;;;;;22.45;37.28;99351.13;5054652;28;20036;-61
2022/04/21 09:06:16;;;;;;;9.18;6.00;;;;;;;23.16;35.89;99353.41;5054970;28;20472;-61
2022/04/21 09:08:42;;;;;;;8.80;5.90;;;;;;;23.43;34.73;99345.41;5060668;28;20039;-61
2022/04/21 09:11:15;;;;;;;8.18;6.03;;;;;;;23.41;34.46;99347.41;5074319;28;20020;-63
2022/04/21 09:13:42;;;;;;;8.50;6.18;;;;;;;23.54;35.69;99341.69;5073038;28;20032;-61
2022/04/21 09:16:12;;;;;;;13.82;6.47;;;;;;;24.06;36.63;99337.47;5073877;28;20506;-63
2022/04/21 09:18:38;;;;;;;7.45;5.53;;;;;;;24.43;33.65;99340.97;5095203;28;20021;-61
2022/04/21 09:21:22;;;;;;;8.70;6.22;;;;;;;24.25;35.04;99345.53;5094336;28;20407;-61
2022/04/21 09:23:48;;;;;;;7.65;5.22;;;;;;;23.87;32.72;99343.81;5094974;28;20467;-61
2022/04/21 09:26:21;;;;;;;10.82;6.35;;;;;;;24.26;35.22;99336.34;5085545;28;20430;-61
2022/04/21 09:28:57;;;;;;;10.20;5.97;;;;;;;24.03;34.18;99327.78;5075625;28;20032;-61
2022/04/21 09:31:23;;;;;;;9.32;6.55;;;;;;;23.51;35.28;99332.97;5074405;28;20024;-61
2022/04/21 09:33:49;;;;;;;9.30;5.95;;;;;;;23.63;36.01;99332.63;5074238;28;20033;-61
2022/04/21 09:36:16;;;;;;;9.10;6.50;;;;;;;23.34;34.41;99329.16;5059902;28;20049;-61
2022/04/21 09:38:41;;;;;;;10.00;6.18;;;;;;;23.38;34.80;99320.56;5071450;28;20016;-61
2022/04/21 09:41:08;;;;;;;9.95;6.13;;;;;;;23.60;33.49;99313.06;5074043;28;20498;-61
2022/04/21 09:43:35;;;;;;;9.05;5.50;;;;;;;23.34;34.55;99313.72;5074226;28;20074;-63
2022/04/21 09:46:18;;;;;;;8.75;6.32;;;;;;;23.37;36.20;99309.84;5073918;28;20040;-63
2022/04/21 09:48:45;;;;;;;10.65;6.07;;;;;;;23.13;34.31;99309.47;5073913;28;20044;-63
2022/04/21 09:51:12;;;;;;;10.43;5.90;;;;;;;23.29;35.69;99301.59;5073018;28;20118;-63
2022/04/21 09:53:58;;;;;;;9.95;6.47;;;;;;;23.78;36.22;99294.97;5073987;28;20048;-63
2022/04/21 09:56:37;;;;;;;11.95;7.93;;;;;;;24.10;34.69;99287.25;5073752;28;20051;-63
2022/04/21 09:59:08;;;;;;;8.73;5.75;;;;;;;23.89;33.31;99292.91;5073752;28;20097;-63
2022/04/21 10:01:41;;;;;;;9.02;5.60;;;;;;;23.94;32.24;99285.16;5072288;28;20024;-63
2022/04/21 10:04:08;;;;;;;12.32;6.80;;;;;;;24.17;34.10;99286.47;5073809;28;20511;-63
2022/04/21 10:06:43;;;;;;;35.35;16.55;;;;;;;24.69;32.82;99284.84;5073760;28;20028;-63
2022/04/21 10:09:10;;;;;;;25.27;12.25;;;;;;;24.81;31.89;99274.56;5073463;28;20059;-63
2022/04/21 10:11:40;;;;;;;9.70;5.80;;;;;;;24.65;31.27;99270.66;5073531;28;20468;-63
2022/04/21 10:14:06;;;;;;;10.82;5.40;;;;;;;24.66;33.49;99266.91;5073497;28;20033;-63
2022/04/21 10:16:32;;;;;;;17.85;9.70;;;;;;;24.55;33.57;99263.56;5077017;28;20110;-63
2022/04/21 10:18:59;;;;;;;19.05;8.45;;;;;;;24.43;32.38;99260.25;5093484;28;20127;-63
2022/04/21 10:21:28;;;;;;;31.08;14.90;;;;;;;24.91;33.20;99253.56;5092749;28;20051;-62
2022/04/21 10:23:53;;;;;;;34.78;16.05;;;;;;;24.76;31.46;99252.41;5092252;28;20035;-63
2022/04/21 10:26:35;;;;;;;13.02;6.03;;;;;;;25.26;33.42;99253.44;5082466;28;20020;-63
2022/04/21 10:29:23;;;;;;;20.40;9.63;;;;;;;25.02;32.53;99250.56;5072918;28;20025;-63
2022/04/21 10:32:00;;;;;;;21.25;10.60;;;;;;;25.26;31.95;99243.41;5073109;28;20036;-63
2022/04/21 10:34:28;;;;;;;11.98;6.70;;;;;;;25.26;32.17;99240.69;5073237;28;20024;-63
2022/04/21 10:37:13;;;;;;;8.50;5.05;;;;;;;24.83;30.54;99238.00;5068302;28;20063;-63
2022/04/21 10:39:40;;;;;;;9.82;5.00;;;;;;;25.01;31.47;99233.38;5053182;28;20125;-63
2022/04/21 10:42:18;;;;;;;7.45;4.78;;;;;;;24.19;31.92;99229.25;5053057;28;20032;-63
2022/04/21 10:44:51;;;;;;;20.95;11.20;;;;;;;24.37;32.15;99224.66;5053137;28;20035;-63
2022/04/21 10:47:26;;;;;;;28.55;13.73;;;;;;;25.33;34.35;99225.44;5052500;28;20086;-63
2022/04/21 10:50:19;;;;;;;11.02;6.18;;;;;;;25.42;31.84;99210.84;5053741;28;20036;-63
2022/04/21 10:57:56;;;;;;;6.95;4.20;;;;;;;25.10;30.84;99205.22;5072433;28;20086;-64
2022/04/21 11:00:32;;;;;;;9.73;4.65;;;;;;;25.01;32.24;99205.34;5055452;28;20028;-63
2022/04/21 11:03:08;;;;;;;8.55;5.28;;;;;;;25.21;31.97;99199.50;5054854;28;20025;-63
2022/04/21 11:05:38;;;;;;;8.25;4.53;;;;;;;25.68;32.51;99198.03;5052594;28;20021;-63
2022/04/21 11:08:05;;;;;;;10.10;5.28;;;;;;;26.04;31.44;99195.97;5052733;28;20032;-63
2022/04/21 11:10:36;;;;;;;8.60;4.43;;;;;;;25.64;29.96;99190.34;5052250;28;20455;-63
2022/04/21 11:13:02;;;;;;;7.43;4.65;;;;;;;25.24;31.57;99179.28;5052684;28;20020;-63
2022/04/21 11:15:32;;;;;;;8.98;5.28;;;;;;;25.62;32.74;99189.66;5051796;28;20036;-63
2022/04/21 11:18:09;;;;;;;9.95;5.50;;;;;;;25.79;31.59;99183.25;5070316;28;20032;-63
2022/04/21 11:20:35;;;;;;;7.68;4.78;;;;;;;25.86;31.11;99166.06;5073482;28;20480;-63
2022/04/21 11:23:00;;;;;;;8.07;4.63;;;;;;;25.73;31.46;99183.94;5093014;28;20055;-63
2022/04/21 11:25:32;;;;;;;7.50;4.38;;;;;;;25.66;31.87;99180.16;5089726;28;20062;-63
2022/04/21 11:27:58;;;;;;;6.82;4.22;;;;;;;25.68;32.50;99176.22;5070151;28;20025;-63
2022/04/21 11:30:25;;;;;;;9.77;4.88;;;;;;;25.66;32.79;99172.84;5050897;28;20051;-63
2022/04/21 11:32:51;;;;;;;8.23;4.75;;;;;;;25.30;30.70;99163.13;5054062;28;20029;-63
2022/04/21 11:35:18;;;;;;;7.32;4.70;;;;;;;25.87;31.51;99156.03;5051903;28;20528;-63
2022/04/21 11:37:45;;;;;;;7.50;4.32;;;;;;;26.37;30.72;99151.34;5052179;28;20052;-63
2022/04/21 11:40:22;;;;;;;6.05;4.05;;;;;;;26.54;31.67;99155.75;5052082;28;20027;-63
2022/04/21 11:42:51;;;;;;;7.70;4.32;;;;;;;26.92;32.04;99146.88;5069856;28;20545;-63
2022/04/21 11:45:22;;;;;;;8.68;4.55;;;;;;;26.58;31.53;99145.34;5071679;28;20020;-63
2022/04/21 11:47:47;;;;;;;7.88;4.57;;;;;;;26.31;30.53;99137.53;5071898;28;20392;-63
2022/04/21 11:50:33;;;;;;;6.63;3.75;;;;;;;25.63;29.78;99140.44;5072068;28;20111;-63
2022/04/21 11:53:10;;;;;;;6.90;4.00;;;;;;;25.77;31.16;99144.41;5071712;28;20036;-63
2022/04/21 11:55:35;;;;;;;8.48;3.55;;;;;;;26.00;30.83;99136.47;5085922;28;20078;-64
2022/04/21 11:58:01;;;;;;;7.25;4.07;;;;;;;25.85;30.84;99134.38;5071950;28;20028;-64
2022/04/21 12:08:50;;;;;;;5.85;2.88;;;;;;;26.84;30.96;99124.19;5071677;28;20036;-63
2022/04/21 12:11:22;;;;;;;4.97;3.13;;;;;;;26.63;29.33;99132.91;5071459;28;20028;-63
2022/04/21 12:13:49;;;;;;;8.68;3.40;;;;;;;26.48;30.12;99115.53;5071528;28;20067;-63
2022/04/21 12:16:36;;;;;;;7.68;3.50;;;;;;;26.08;31.28;99120.16;5071479;28;20031;-64
2022/04/21 12:19:28;;;;;;;5.88;3.35;;;;;;;26.24;31.77;99109.25;5073891;28;20029;-64
2022/04/21 12:22:13;;;;;;;4.63;2.70;;;;;;;26.61;32.94;99106.81;5083451;28;20074;-64
2022/04/21 12:24:41;;;;;;;6.93;3.17;;;;;;;26.39;30.37;99102.09;5091867;28;20028;-64
2022/04/21 12:27:13;;;;;;;7.25;3.50;;;;;;;26.57;32.00;99105.47;5091532;28;20028;-64
2022/04/21 12:30:05;;;;;;;6.32;3.72;;;;;;;26.53;31.39;99101.38;5091392;28;20051;-64
2022/04/21 12:32:32;;;;;;;7.82;3.42;;;;;;;26.57;31.56;99106.31;5086767;28;20036;-64
2022/04/21 12:35:02;;;;;;;5.80;3.33;;;;;;;26.87;30.66;99096.56;5091519;28;20024;-64